Active alerts


No alerts


weather webcam more information weather webcam


Thunder radar more information blitzortung!


Rain radar more information rain snow radar


Visit our other weather sites:

Template documentation
and downloads

And another site


Nearby METAR Reports

   
EBBR - Brussels International Airport, Belgium
Distance from station: W 9 mi
Updated: Oct 16 2018 8:50 pm
Clear  
Clear  
   Wind: West 3.5 mph
Wind: West 3.5 mph
Temperature: 55.4°F
Dew Point: 51.8°F
Humidity: 88%
Barometer: 30.06 inHg
Visibility: More than 6 mi
Cloud details: Clear
EBBR 170150Z 28003KT CAVOK 13/11 Q1018 NOSIG
EBBE - Beauvechain (Bevekom), Belgium
Distance from station: SSE 10 mi
Updated: Oct 16 2018 8:25 pm
Clear  
Clear  
   Wind: varies 2.3 mph
Wind: varies 2.3 mph
Temperature: 55.4°F
Dew Point: 50°F
Humidity: 82%
Barometer: 30.09 inHg
Clouds: Clear
Visibility: More than 6 mi
Cloud details: Clear
EBBE 170125Z AUTO VRB02KT 9999 NCD 13/10 Q1019 BLU
EBDT - Schaffen, Belgium
Distance from station: ENE 18 mi
Updated: Oct 16 2018 8:25 pm
Mostly Cloudy  
Mostly Cloudy  
   Wind: WSW 3.5 mph
Wind: WSW 3.5 mph
Temperature: 55.4°F
Dew Point: 48.2°F
Humidity: 77%
Barometer: 30.06 inHg
Clouds: Mostly Cloudy
Visibility: More than 6 mi
Cloud details: Mostly Cloudy 23000 ft
EBDT 170125Z AUTO 24003KT 9999 BKN230/// 13/09 Q1018 BLU
EBAW - Antwerp/Deurne, Belgium
Distance from station: NNW 23 mi
Updated: Oct 16 2018 8:50 pm
Clear  
Clear  
   Wind: West 2.3 mph
Wind: West 2.3 mph
Temperature: 53.6°F
Dew Point: 50°F
Humidity: 88%
Barometer: 30.06 inHg
Clouds: Clear
Visibility: 3 mi
Cloud details: Clear
EBAW 170150Z AUTO 26002KT 5000 // NCD 12/10 Q1018
EBCI - Charleroi/Gosselies, Belgium
Distance from station: SSW 32 mi
Updated: Oct 16 2018 8:50 pm
Clear  
Clear  
   Wind: West 3.5 mph
Wind: West 3.5 mph
Temperature: 55.4°F
Dew Point: 48.2°F
Humidity: 77%
Barometer: 30.09 inHg
Visibility: More than 6 mi
Cloud details: Clear
EBCI 170150Z 27003KT CAVOK 13/09 Q1019 NOSIG
EBLG - Bierset/Liege, Belgium
Distance from station: ESE 38 mi
Updated: Oct 16 2018 8:50 pm
Clear  
Clear  
   Wind: South 6.9 mph
Wind: South 6.9 mph
Temperature: 59°F
Dew Point: 46.4°F
Humidity: 63%
Barometer: 30.06 inHg
Visibility: More than 6 mi
Cloud details: Clear
EBLG 170150Z 17006KT 140V200 CAVOK 15/08 Q1018 NOSIG

Script developed by  Saratoga-weather.org Adapted for the template by  Weerstation Leuven

You find our weather info also at:

Weather Underground

Midwestern Weather Network

Citizen Weather Observer Program (CWOP)

HAMweather, WeatherForYou, PWS Weather

Equipment we use:

Weather-station
Davis VP2

Weather-program
Cumulus

Davis VP2

Cumulus